Lafayette Regional Airport
KLFT : rendu visible

Aérodrome :











RETROUVEZ-NOUS SUR...

 
LOGIN :

S'inscrire | Disclaimer

   EN    FR    IT 

 









Légende :    VFR   VFR Marginal   IFR   IFR Intensif   IFR Très Intensif
Visi : 
Plafond : 
>= 8 km
>= 3000ft
5 à 8 km
1000 à 3000 ft
1500m à 5 km
500 à 1000 ft
800 à 1500m
200 à 500 ft
< 800m
< 200 ft
Symboles :   Orages  Brouillard  Fortes neiges  Fortes précipitations  Vent > 20 kt






- Altitude de l'aérodrome : 42 ft
- Code IATA : LFT


KLFT - Lafayette Regional

DERNIER METAR :
  • 100853Z AUTO 18005KT 1/2SM FG VV002 21/21 A2995 RMK AO2 SLP140 T02110206 51006

METARs EXPIRÉS :
  • 100809Z AUTO 20006KT 3/4SM BR VV002 22/21 A2995 RMK AO2 T02170206
  • 100753Z AUTO 19005KT 1 1/4SM BR OVC002 22/21 A2995 RMK AO2 SLP140 T02170211
  • 100730Z AUTO 18005KT 1 1/2SM BR OVC002 22/21 A2994 RMK AO2 T02170206
  • 100720Z AUTO 19005KT 2SM BR OVC002 22/21 A2994 RMK AO2 T02170211
  • 100653Z AUTO 19005KT 3SM BR OVC003 22/21 A2994 RMK AO2 SLP136 T02170206

TAF KLFT
Valide du 10 à 08h jusqu'au 11 à 06h UTC


100827Z 1008/1106 20006KT 2SM BR VCSH VV002
TEMPO 1008/1012 1/2SM FG BKN006 OVC015
FM101200 33009KT 6SM -SHRA OVC008
FM101600 36015G23KT 6SM -SHRA OVC008
FM102000 03019G27KT 6SM -SHRA OVC008



MET'MAP, la Météo Aéronautique d'un coup d'oeil ! - Copyright ORBIFLY Décembre 2007 - Disclaimer

ORBIFLY MET'MAP TEAM :

Programmation & Développement : Alexandra Zaïnal
Sur une idée originale de : Baudouin d'Aumeries
Assistance à la programmation : Marc-Olivier Méhu
Soutien technique & logistique : Manuel Goepfert

Contact : metmap@orbifly.com




SOURCES & CREDITS :

   NOAA       Earth
Advisory